sensor_id;sensor_type;location;lat;lon;timestamp;pressure;altitude;pressure_sealevel;temperature;humidity
21838;BME280;11081;45.946;6.140;2022-07-12T00:00:35;95546.06;;;21.79;54.13
21838;BME280;11081;45.946;6.140;2022-07-12T00:03:03;95550.66;;;21.98;53.56
21838;BME280;11081;45.946;6.140;2022-07-12T00:05:32;95552.72;;;22.06;53.67
21838;BME280;11081;45.946;6.140;2022-07-12T00:08:01;95541.84;;;22.07;53.70
21838;BME280;11081;45.946;6.140;2022-07-12T00:10:29;95543.16;;;22.05;53.40
21838;BME280;11081;45.946;6.140;2022-07-12T00:12:57;95545.00;;;22.09;53.38
21838;BME280;11081;45.946;6.140;2022-07-12T00:15:25;95546.44;;;21.97;53.72
21838;BME280;11081;45.946;6.140;2022-07-12T00:17:53;95544.84;;;21.96;53.49
21838;BME280;11081;45.946;6.140;2022-07-12T00:20:22;95547.00;;;21.94;53.60
21838;BME280;11081;45.946;6.140;2022-07-12T00:22:50;95545.41;;;21.92;53.65
21838;BME280;11081;45.946;6.140;2022-07-12T00:25:20;95548.56;;;21.95;53.79
21838;BME280;11081;45.946;6.140;2022-07-12T00:27:48;95551.03;;;21.86;53.96
21838;BME280;11081;45.946;6.140;2022-07-12T00:30:16;95548.66;;;21.84;54.79
21838;BME280;11081;45.946;6.140;2022-07-12T00:32:44;95555.13;;;21.78;55.30
21838;BME280;11081;45.946;6.140;2022-07-12T00:35:15;95558.63;;;21.74;55.52
21838;BME280;11081;45.946;6.140;2022-07-12T00:37:43;95562.75;;;21.56;55.80
21838;BME280;11081;45.946;6.140;2022-07-12T00:40:12;95566.03;;;21.48;56.21
21838;BME280;11081;45.946;6.140;2022-07-12T00:42:41;95557.28;;;21.47;56.23
21838;BME280;11081;45.946;6.140;2022-07-12T00:45:10;95563.22;;;21.63;55.82
21838;BME280;11081;45.946;6.140;2022-07-12T00:47:40;95556.81;;;21.69;55.82
21838;BME280;11081;45.946;6.140;2022-07-12T00:50:11;95564.00;;;21.64;56.10
21838;BME280;11081;45.946;6.140;2022-07-12T00:52:39;95561.97;;;21.55;56.11
21838;BME280;11081;45.946;6.140;2022-07-12T00:55:09;95566.59;;;21.45;56.54
21838;BME280;11081;45.946;6.140;2022-07-12T00:57:37;95562.88;;;21.46;56.25
21838;BME280;11081;45.946;6.140;2022-07-12T01:00:09;95562.38;;;21.39;56.60
21838;BME280;11081;45.946;6.140;2022-07-12T01:02:37;95566.16;;;21.33;56.70
21838;BME280;11081;45.946;6.140;2022-07-12T01:05:07;95567.47;;;21.35;56.48
21838;BME280;11081;45.946;6.140;2022-07-12T01:07:36;95563.41;;;21.43;56.48
21838;BME280;11081;45.946;6.140;2022-07-12T01:10:06;95563.34;;;21.53;56.13
21838;BME280;11081;45.946;6.140;2022-07-12T01:12:35;95559.59;;;21.54;56.19
21838;BME280;11081;45.946;6.140;2022-07-12T01:15:05;95556.88;;;21.59;55.95
21838;BME280;11081;45.946;6.140;2022-07-12T01:17:35;95569.94;;;21.55;56.20
21838;BME280;11081;45.946;6.140;2022-07-12T01:20:04;95561.19;;;21.55;56.36
21838;BME280;11081;45.946;6.140;2022-07-12T01:22:34;95564.34;;;21.57;56.00
21838;BME280;11081;45.946;6.140;2022-07-12T01:25:04;95565.41;;;21.56;55.96
21838;BME280;11081;45.946;6.140;2022-07-12T01:27:33;95570.78;;;21.51;56.12
21838;BME280;11081;45.946;6.140;2022-07-12T01:30:02;95562.31;;;21.49;56.28
21838;BME280;11081;45.946;6.140;2022-07-12T01:32:31;95570.78;;;21.51;55.96
21838;BME280;11081;45.946;6.140;2022-07-12T01:35:01;95567.06;;;21.52;56.16
21838;BME280;11081;45.946;6.140;2022-07-12T01:37:33;95579.59;;;21.46;56.00
21838;BME280;11081;45.946;6.140;2022-07-12T01:40:06;95584.13;;;21.46;55.91
21838;BME280;11081;45.946;6.140;2022-07-12T01:42:35;95579.59;;;21.46;55.99
21838;BME280;11081;45.946;6.140;2022-07-12T01:45:05;95580.63;;;21.50;55.74
21838;BME280;11081;45.946;6.140;2022-07-12T01:47:34;95582.53;;;21.45;55.82
21838;BME280;11081;45.946;6.140;2022-07-12T01:50:04;95580.47;;;21.37;55.92
21838;BME280;11081;45.946;6.140;2022-07-12T01:52:33;95576.72;;;21.38;56.29
21838;BME280;11081;45.946;6.140;2022-07-12T01:55:01;95567.69;;;21.39;56.32
21838;BME280;11081;45.946;6.140;2022-07-12T01:57:31;95576.16;;;21.41;56.43
21838;BME280;11081;45.946;6.140;2022-07-12T02:00:00;95564.63;;;21.26;56.56
21838;BME280;11081;45.946;6.140;2022-07-12T02:04:59;95567.81;;;21.18;57.12
21838;BME280;11081;45.946;6.140;2022-07-12T02:07:27;95578.94;;;21.20;57.05
21838;BME280;11081;45.946;6.140;2022-07-12T02:09:55;95577.38;;;21.24;57.13
21838;BME280;11081;45.946;6.140;2022-07-12T02:12:24;95565.63;;;21.30;56.04
21838;BME280;11081;45.946;6.140;2022-07-12T02:14:54;95576.69;;;21.43;55.96
21838;BME280;11081;45.946;6.140;2022-07-12T02:17:21;95572.72;;;21.40;56.27
21838;BME280;11081;45.946;6.140;2022-07-12T02:19:49;95574.13;;;21.33;56.43
21838;BME280;11081;45.946;6.140;2022-07-12T02:22:18;95578.41;;;21.28;56.49
21838;BME280;11081;45.946;6.140;2022-07-12T02:24:46;95576.25;;;21.30;56.28
21838;BME280;11081;45.946;6.140;2022-07-12T02:27:14;95584.22;;;21.30;56.11
21838;BME280;11081;45.946;6.140;2022-07-12T02:29:42;95590.06;;;21.33;56.08
21838;BME280;11081;45.946;6.140;2022-07-12T02:32:12;95586.88;;;21.30;56.11
21838;BME280;11081;45.946;6.140;2022-07-12T02:34:40;95583.72;;;21.28;56.06
21838;BME280;11081;45.946;6.140;2022-07-12T02:37:08;95587.69;;;21.31;56.30
21838;BME280;11081;45.946;6.140;2022-07-12T02:39:36;95586.09;;;21.30;56.13
21838;BME280;11081;45.946;6.140;2022-07-12T02:42:04;95587.44;;;21.27;56.55
21838;BME280;11081;45.946;6.140;2022-07-12T02:44:32;95583.47;;;21.25;56.21
21838;BME280;11081;45.946;6.140;2022-07-12T02:47:00;95582.16;;;21.17;56.29
21838;BME280;11081;45.946;6.140;2022-07-12T02:49:30;95599.25;;;21.01;56.95
21838;BME280;11081;45.946;6.140;2022-07-12T02:51:58;95590.78;;;20.99;56.92
21838;BME280;11081;45.946;6.140;2022-07-12T02:54:26;95595.06;;;20.95;57.16
21838;BME280;11081;45.946;6.140;2022-07-12T02:56:54;95599.84;;;20.93;57.52
21838;BME280;11081;45.946;6.140;2022-07-12T02:59:22;95603.59;;;20.87;57.63
21838;BME280;11081;45.946;6.140;2022-07-12T03:01:51;95600.44;;;20.85;57.76
21838;BME280;11081;45.946;6.140;2022-07-12T03:04:19;95593.53;;;20.84;57.94
21838;BME280;11081;45.946;6.140;2022-07-12T03:06:48;95588.75;;;20.81;57.97
21838;BME280;11081;45.946;6.140;2022-07-12T03:09:16;95591.69;;;20.79;57.94
21838;BME280;11081;45.946;6.140;2022-07-12T03:11:44;95588.50;;;20.77;58.30
21838;BME280;11081;45.946;6.140;2022-07-12T03:14:13;95588.28;;;20.74;58.42
21838;BME280;11081;45.946;6.140;2022-07-12T03:16:41;95584.84;;;20.68;58.82
21838;BME280;11081;45.946;6.140;2022-07-12T03:19:09;95603.69;;;20.66;58.79
21838;BME280;11081;45.946;6.140;2022-07-12T03:21:37;95603.69;;;20.66;58.94
21838;BME280;11081;45.946;6.140;2022-07-12T03:24:06;95609.00;;;20.66;58.75
21838;BME280;11081;45.946;6.140;2022-07-12T03:26:34;95602.66;;;20.62;59.23
21838;BME280;11081;45.946;6.140;2022-07-12T03:29:03;95606.34;;;20.61;59.25
21838;BME280;11081;45.946;6.140;2022-07-12T03:31:32;95619.38;;;20.63;59.22
21838;BME280;11081;45.946;6.140;2022-07-12T03:34:00;95617.25;;;20.60;59.40
21838;BME280;11081;45.946;6.140;2022-07-12T03:36:28;95621.25;;;20.57;59.76
21838;BME280;11081;45.946;6.140;2022-07-12T03:38:56;95620.72;;;20.55;60.12
21838;BME280;11081;45.946;6.140;2022-07-12T03:41:26;95624.72;;;20.53;60.42
21838;BME280;11081;45.946;6.140;2022-07-12T03:43:54;95626.84;;;20.51;60.98
21838;BME280;11081;45.946;6.140;2022-07-12T03:46:22;95637.72;;;20.49;61.38
21838;BME280;11081;45.946;6.140;2022-07-12T03:48:50;95635.06;;;20.49;61.44
21838;BME280;11081;45.946;6.140;2022-07-12T03:51:18;95640.91;;;20.46;61.43
21838;BME280;11081;45.946;6.140;2022-07-12T03:53:46;95643.03;;;20.49;61.37
21838;BME280;11081;45.946;6.140;2022-07-12T03:56:14;95636.66;;;20.40;61.62
21838;BME280;11081;45.946;6.140;2022-07-12T03:59:03;95643.06;;;20.44;61.34
21838;BME280;11081;45.946;6.140;2022-07-12T04:01:32;95632.44;;;20.44;61.57
21838;BME280;11081;45.946;6.140;2022-07-12T04:04:00;95628.22;;;20.43;61.54
21838;BME280;11081;45.946;6.140;2022-07-12T04:06:28;95639.88;;;20.42;61.31
21838;BME280;11081;45.946;6.140;2022-07-12T04:08:56;95638.28;;;20.41;61.49
21838;BME280;11081;45.946;6.140;2022-07-12T04:11:24;95637.72;;;20.39;61.57
21838;BME280;11081;45.946;6.140;2022-07-12T04:13:52;95641.94;;;20.40;61.55
21838;BME280;11081;45.946;6.140;2022-07-12T04:16:23;95645.19;;;20.42;61.52
21838;BME280;11081;45.946;6.140;2022-07-12T04:18:51;95654.69;;;20.48;61.01
21838;BME280;11081;45.946;6.140;2022-07-12T04:21:20;95647.78;;;20.37;61.76
21838;BME280;11081;45.946;6.140;2022-07-12T04:23:48;95646.28;;;20.05;62.66
21838;BME280;11081;45.946;6.140;2022-07-12T04:26:16;95645.78;;;19.88;62.91
21838;BME280;11081;45.946;6.140;2022-07-12T04:28:44;95636.50;;;19.86;63.13
21838;BME280;11081;45.946;6.140;2022-07-12T04:31:12;95647.88;;;19.96;62.92
21838;BME280;11081;45.946;6.140;2022-07-12T04:33:42;95642.06;;;19.89;63.28
21838;BME280;11081;45.946;6.140;2022-07-12T04:36:10;95638.09;;;19.66;63.69
21838;BME280;11081;45.946;6.140;2022-07-12T04:38:38;95641.56;;;19.67;63.73
21838;BME280;11081;45.946;6.140;2022-07-12T04:41:06;95631.47;;;19.89;63.37
21838;BME280;11081;45.946;6.140;2022-07-12T04:43:34;95641.81;;;20.01;62.75
21838;BME280;11081;45.946;6.140;2022-07-12T04:46:05;95647.34;;;20.09;63.00
21838;BME280;11081;45.946;6.140;2022-07-12T04:48:34;95659.50;;;20.16;62.47
21838;BME280;11081;45.946;6.140;2022-07-12T04:51:04;95649.44;;;20.18;62.83
21838;BME280;11081;45.946;6.140;2022-07-12T04:53:32;95668.53;;;20.25;62.85
21838;BME280;11081;45.946;6.140;2022-07-12T04:56:00;95665.88;;;20.15;63.61
21838;BME280;11081;45.946;6.140;2022-07-12T04:58:28;95666.44;;;20.01;63.95
21838;BME280;11081;45.946;6.140;2022-07-12T05:00:56;95676.50;;;19.94;64.43
21838;BME280;11081;45.946;6.140;2022-07-12T05:03:25;95674.91;;;20.03;64.20
21838;BME280;11081;45.946;6.140;2022-07-12T05:05:54;95673.31;;;20.13;63.82
21838;BME280;11081;45.946;6.140;2022-07-12T05:08:23;95667.72;;;20.19;63.64
21838;BME280;11081;45.946;6.140;2022-07-12T05:10:51;95661.91;;;20.22;63.38
21838;BME280;11081;45.946;6.140;2022-07-12T05:13:19;95657.09;;;20.29;63.49
21838;BME280;11081;45.946;6.140;2022-07-12T05:15:47;95664.25;;;20.34;63.49
21838;BME280;11081;45.946;6.140;2022-07-12T05:18:15;95663.72;;;20.37;63.67
21838;BME280;11081;45.946;6.140;2022-07-12T05:20:43;95669.00;;;20.37;63.77
21838;BME280;11081;45.946;6.140;2022-07-12T05:23:18;95673.25;;;20.38;63.73
21838;BME280;11081;45.946;6.140;2022-07-12T05:25:47;95660.56;;;20.45;64.51
21838;BME280;11081;45.946;6.140;2022-07-12T05:28:15;95674.31;;;20.37;65.57
21838;BME280;11081;45.946;6.140;2022-07-12T05:30:43;95665.88;;;20.25;65.48
21838;BME280;11081;45.946;6.140;2022-07-12T05:33:11;95667.22;;;20.12;66.65
21838;BME280;11081;45.946;6.140;2022-07-12T05:35:39;95674.34;;;20.17;66.55
21838;BME280;11081;45.946;6.140;2022-07-12T05:38:07;95667.72;;;20.19;66.62
21838;BME280;11081;45.946;6.140;2022-07-12T05:40:35;95686.00;;;20.31;65.92
21838;BME280;11081;45.946;6.140;2022-07-12T05:43:05;95684.16;;;20.47;65.40
21838;BME280;11081;45.946;6.140;2022-07-12T05:45:33;95682.28;;;20.52;65.43
21838;BME280;11081;45.946;6.140;2022-07-12T05:48:01;95673.50;;;20.57;65.65
21838;BME280;11081;45.946;6.140;2022-07-12T05:50:29;95675.88;;;20.58;65.79
21838;BME280;11081;45.946;6.140;2022-07-12T05:52:57;95669.22;;;20.71;65.31
21838;BME280;11081;45.946;6.140;2022-07-12T05:55:43;95668.47;;;20.50;65.09
21838;BME280;11081;45.946;6.140;2022-07-12T05:58:13;95672.72;;;20.51;64.88
21838;BME280;11081;45.946;6.140;2022-07-12T06:00:41;95677.00;;;20.47;64.94
21838;BME280;11081;45.946;6.140;2022-07-12T06:03:09;95672.19;;;20.49;65.48
21838;BME280;11081;45.946;6.140;2022-07-12T06:05:38;95673.25;;;20.53;65.06
21838;BME280;11081;45.946;6.140;2022-07-12T06:08:06;95686.00;;;20.46;65.48
21838;BME280;11081;45.946;6.140;2022-07-12T06:10:34;95684.34;;;20.60;65.00
21838;BME280;11081;45.946;6.140;2022-07-12T06:13:02;95688.56;;;20.77;64.35
21838;BME280;11081;45.946;6.140;2022-07-12T06:15:32;95682.09;;;20.98;64.00
21838;BME280;11081;45.946;6.140;2022-07-12T06:18:01;95687.63;;;21.12;63.52
21838;BME280;11081;45.946;6.140;2022-07-12T06:20:29;95693.16;;;21.25;63.33
21838;BME280;11081;45.946;6.140;2022-07-12T06:22:57;95687.22;;;21.39;63.14
21838;BME280;11081;45.946;6.140;2022-07-12T06:25:26;95699.16;;;21.41;63.04
21838;BME280;11081;45.946;6.140;2022-07-12T06:28:11;95700.38;;;21.59;62.66
21838;BME280;11081;45.946;6.140;2022-07-12T06:30:40;95700.38;;;21.59;62.33
21838;BME280;11081;45.946;6.140;2022-07-12T06:33:09;95702.38;;;21.77;61.85
21838;BME280;11081;45.946;6.140;2022-07-12T06:35:36;95704.50;;;21.75;62.13
21838;BME280;11081;45.946;6.140;2022-07-12T06:38:05;95708.16;;;21.84;61.93
21838;BME280;11081;45.946;6.140;2022-07-12T06:40:33;95706.56;;;21.83;61.67
21838;BME280;11081;45.946;6.140;2022-07-12T06:43:01;95701.81;;;21.80;61.80
21838;BME280;11081;45.946;6.140;2022-07-12T06:45:29;95706.44;;;21.99;61.17
21838;BME280;11081;45.946;6.140;2022-07-12T06:47:58;95701.50;;;22.21;60.49
21838;BME280;11081;45.946;6.140;2022-07-12T06:50:26;95697.31;;;22.15;60.82
21838;BME280;11081;45.946;6.140;2022-07-12T06:52:54;95703.09;;;22.22;60.46
21838;BME280;11081;45.946;6.140;2022-07-12T06:55:23;95690.66;;;22.41;59.90
21838;BME280;11081;45.946;6.140;2022-07-12T06:57:51;95688.63;;;22.33;60.17
21838;BME280;11081;45.946;6.140;2022-07-12T07:00:19;95687.13;;;22.22;60.26
21838;BME280;11081;45.946;6.140;2022-07-12T07:02:47;95682.38;;;22.19;60.22
21838;BME280;11081;45.946;6.140;2022-07-12T07:05:17;95683.38;;;22.23;59.97
21838;BME280;11081;45.946;6.140;2022-07-12T07:07:46;95692.03;;;22.39;59.53
21838;BME280;11081;45.946;6.140;2022-07-12T07:10:14;95696.28;;;22.64;58.45
21838;BME280;11081;45.946;6.140;2022-07-12T07:12:42;95689.16;;;22.83;58.27
21838;BME280;11081;45.946;6.140;2022-07-12T07:15:10;95687.41;;;22.97;57.30
21838;BME280;11081;45.946;6.140;2022-07-12T07:17:40;95687.78;;;22.91;58.04
21838;BME280;11081;45.946;6.140;2022-07-12T07:20:09;95695.16;;;22.70;58.25
21838;BME280;11081;45.946;6.140;2022-07-12T07:22:39;95694.91;;;22.95;57.63
21838;BME280;11081;45.946;6.140;2022-07-12T07:25:07;95699.97;;;23.16;57.14
21838;BME280;11081;45.946;6.140;2022-07-12T07:27:35;95707.13;;;22.96;56.56
21838;BME280;11081;45.946;6.140;2022-07-12T07:30:06;95704.59;;;22.81;57.36
21838;BME280;11081;45.946;6.140;2022-07-12T07:32:51;95703.59;;;22.77;57.61
21838;BME280;11081;45.946;6.140;2022-07-12T07:35:22;95699.25;;;22.86;57.17
21838;BME280;11081;45.946;6.140;2022-07-12T07:37:51;95693.63;;;22.88;57.62
21838;BME280;11081;45.946;6.140;2022-07-12T07:40:20;95699.44;;;22.95;57.19
21838;BME280;11081;45.946;6.140;2022-07-12T07:42:48;95701.00;;;22.96;57.47
21838;BME280;11081;45.946;6.140;2022-07-12T07:45:17;95702.81;;;23.00;57.09
21838;BME280;11081;45.946;6.140;2022-07-12T07:47:46;95703.81;;;23.04;56.05
21838;BME280;11081;45.946;6.140;2022-07-12T07:50:35;95711.06;;;23.23;56.11
21838;BME280;11081;45.946;6.140;2022-07-12T07:53:05;95705.59;;;23.33;55.75
21838;BME280;11081;45.946;6.140;2022-07-12T07:55:33;95701.28;;;23.37;55.41
21838;BME280;11081;45.946;6.140;2022-07-12T07:58:01;95706.16;;;23.30;55.87
21838;BME280;11081;45.946;6.140;2022-07-12T08:00:29;95698.03;;;23.40;55.42
21838;BME280;11081;45.946;6.140;2022-07-12T08:02:57;95699.94;;;23.58;54.99
21838;BME280;11081;45.946;6.140;2022-07-12T08:05:25;95707.03;;;23.44;55.41
21838;BME280;11081;45.946;6.140;2022-07-12T08:07:55;95705.44;;;23.43;54.09
21838;BME280;11081;45.946;6.140;2022-07-12T08:10:26;95712.50;;;23.53;54.14
21838;BME280;11081;45.946;6.140;2022-07-12T08:12:54;95705.28;;;23.58;54.05
21838;BME280;11081;45.946;6.140;2022-07-12T08:15:22;95700.22;;;23.76;52.77
21838;BME280;11081;45.946;6.140;2022-07-12T08:17:50;95705.72;;;23.98;52.54
21838;BME280;11081;45.946;6.140;2022-07-12T08:20:21;95697.06;;;24.06;51.95
21838;BME280;11081;45.946;6.140;2022-07-12T08:23:09;95688.47;;;23.77;53.06
21838;BME280;11081;45.946;6.140;2022-07-12T08:25:39;95697.47;;;24.13;52.12
21838;BME280;11081;45.946;6.140;2022-07-12T08:28:07;95694.41;;;24.39;51.66
21838;BME280;11081;45.946;6.140;2022-07-12T08:30:36;95695.38;;;24.43;51.82
21838;BME280;11081;45.946;6.140;2022-07-12T08:33:11;95696.75;;;24.54;50.78
21838;BME280;11081;45.946;6.140;2022-07-12T08:35:39;95705.09;;;24.66;50.75
21838;BME280;11081;45.946;6.140;2022-07-12T08:38:07;95698.56;;;24.45;50.01
21838;BME280;11081;45.946;6.140;2022-07-12T08:40:36;95704.28;;;24.52;51.15
21838;BME280;11081;45.946;6.140;2022-07-12T08:43:06;95704.50;;;24.69;50.77
21838;BME280;11081;45.946;6.140;2022-07-12T08:45:34;95697.78;;;24.85;50.83
21838;BME280;11081;45.946;6.140;2022-07-12T08:48:02;95698.34;;;24.96;50.62
21838;BME280;11081;45.946;6.140;2022-07-12T08:50:30;95703.34;;;25.03;50.85
21838;BME280;11081;45.946;6.140;2022-07-12T08:52:59;95701.97;;;25.05;50.74
21838;BME280;11081;45.946;6.140;2022-07-12T08:55:28;95693.03;;;24.82;51.39
21838;BME280;11081;45.946;6.140;2022-07-12T08:57:58;95696.81;;;24.81;50.38
21838;BME280;11081;45.946;6.140;2022-07-12T09:00:31;95690.66;;;24.94;50.90
21838;BME280;11081;45.946;6.140;2022-07-12T09:03:01;95689.66;;;25.18;50.46
21838;BME280;11081;45.946;6.140;2022-07-12T09:05:30;95697.34;;;25.33;50.37
21838;BME280;11081;45.946;6.140;2022-07-12T09:08:02;95699.75;;;25.21;49.79
21838;BME280;11081;45.946;6.140;2022-07-12T09:10:31;95696.38;;;25.29;49.79
21838;BME280;11081;45.946;6.140;2022-07-12T09:13:00;95703.66;;;25.37;50.14
21838;BME280;11081;45.946;6.140;2022-07-12T09:15:29;95709.63;;;25.34;49.45
21838;BME280;11081;45.946;6.140;2022-07-12T09:17:59;95704.13;;;25.03;50.71
21838;BME280;11081;45.946;6.140;2022-07-12T09:20:29;95702.16;;;25.09;50.65
21838;BME280;11081;45.946;6.140;2022-07-12T09:23:00;95696.78;;;24.95;51.00
21838;BME280;11081;45.946;6.140;2022-07-12T09:25:28;95700.34;;;24.90;51.10
21838;BME280;11081;45.946;6.140;2022-07-12T09:27:57;95710.06;;;25.14;50.12
21838;BME280;11081;45.946;6.140;2022-07-12T09:30:27;95701.34;;;25.22;50.08
21838;BME280;11081;45.946;6.140;2022-07-12T09:32:59;95701.72;;;25.29;50.11
21838;BME280;11081;45.946;6.140;2022-07-12T09:35:59;95701.50;;;25.39;50.97
21838;BME280;11081;45.946;6.140;2022-07-12T09:38:35;95705.50;;;25.28;50.24
21838;BME280;11081;45.946;6.140;2022-07-12T09:41:04;95705.50;;;25.28;50.09
21838;BME280;11081;45.946;6.140;2022-07-12T09:43:33;95703.59;;;25.42;49.60
21838;BME280;11081;45.946;6.140;2022-07-12T09:46:01;95704.13;;;25.53;49.38
21838;BME280;11081;45.946;6.140;2022-07-12T09:48:31;95704.06;;;25.44;50.11
21838;BME280;11081;45.946;6.140;2022-07-12T09:51:02;95710.03;;;25.41;49.94
21838;BME280;11081;45.946;6.140;2022-07-12T09:53:32;95711.19;;;25.49;49.59
21838;BME280;11081;45.946;6.140;2022-07-12T09:56:03;95704.22;;;25.62;49.55
21838;BME280;11081;45.946;6.140;2022-07-12T09:58:37;95710.91;;;25.87;49.62
21838;BME280;11081;45.946;6.140;2022-07-12T10:01:07;95703.72;;;25.96;48.83
21838;BME280;11081;45.946;6.140;2022-07-12T10:03:44;95704.28;;;26.06;48.78
21838;BME280;11081;45.946;6.140;2022-07-12T10:06:16;95699.25;;;26.13;49.11
21838;BME280;11081;45.946;6.140;2022-07-12T10:08:44;95709.34;;;26.17;48.75
21838;BME280;11081;45.946;6.140;2022-07-12T10:11:12;95699.63;;;25.98;48.71
21838;BME280;11081;45.946;6.140;2022-07-12T10:14:00;95702.44;;;26.16;48.61
21838;BME280;11081;45.946;6.140;2022-07-12T10:16:29;95702.06;;;26.31;48.11
21838;BME280;11081;45.946;6.140;2022-07-12T10:19:24;95698.75;;;26.34;47.04
21838;BME280;11081;45.946;6.140;2022-07-12T10:21:54;95694.25;;;26.21;48.72
21838;BME280;11081;45.946;6.140;2022-07-12T10:24:47;95698.31;;;26.09;48.84
21838;BME280;11081;45.946;6.140;2022-07-12T10:27:32;95703.38;;;26.20;48.11
21838;BME280;11081;45.946;6.140;2022-07-12T10:30:14;95702.53;;;26.33;48.63
21838;BME280;11081;45.946;6.140;2022-07-12T10:32:44;95699.63;;;26.21;47.61
21838;BME280;11081;45.946;6.140;2022-07-12T10:35:16;95701.81;;;26.19;47.49
21838;BME280;11081;45.946;6.140;2022-07-12T10:38:18;95704.72;;;26.31;48.19
21838;BME280;11081;45.946;6.140;2022-07-12T10:40:48;95709.47;;;26.34;47.39
21838;BME280;11081;45.946;6.140;2022-07-12T10:43:19;95701.28;;;26.08;48.76
21838;BME280;11081;45.946;6.140;2022-07-12T10:45:48;95701.47;;;26.11;48.84
21838;BME280;11081;45.946;6.140;2022-07-12T10:48:22;95709.13;;;26.27;49.18
21838;BME280;11081;45.946;6.140;2022-07-12T10:50:52;95705.81;;;26.52;48.08
21838;BME280;11081;45.946;6.140;2022-07-12T10:53:31;95702.03;;;26.53;48.91
21838;BME280;11081;45.946;6.140;2022-07-12T10:56:14;95706.16;;;26.59;47.75
21838;BME280;11081;45.946;6.140;2022-07-12T10:58:45;95703.69;;;26.71;47.76
21838;BME280;11081;45.946;6.140;2022-07-12T11:01:16;95700.59;;;26.87;47.28
21838;BME280;11081;45.946;6.140;2022-07-12T11:03:45;95691.81;;;27.03;48.25
21838;BME280;11081;45.946;6.140;2022-07-12T11:06:16;95705.75;;;27.14;47.28
21838;BME280;11081;45.946;6.140;2022-07-12T11:08:53;95701.50;;;27.13;46.94
21838;BME280;11081;45.946;6.140;2022-07-12T11:11:24;95694.34;;;27.00;46.97
21838;BME280;11081;45.946;6.140;2022-07-12T11:13:53;95693.09;;;27.06;46.42
21838;BME280;11081;45.946;6.140;2022-07-12T11:16:22;95690.56;;;27.01;46.61
21838;BME280;11081;45.946;6.140;2022-07-12T11:18:52;95689.47;;;27.02;46.78
21838;BME280;11081;45.946;6.140;2022-07-12T11:21:22;95699.44;;;27.10;46.41
21838;BME280;11081;45.946;6.140;2022-07-12T11:23:51;95696.28;;;27.25;45.92
21838;BME280;11081;45.946;6.140;2022-07-12T11:26:19;95695.03;;;27.14;45.57
21838;BME280;11081;45.946;6.140;2022-07-12T11:28:48;95686.34;;;27.17;44.97
21838;BME280;11081;45.946;6.140;2022-07-12T11:31:17;95690.94;;;27.25;45.36
21838;BME280;11081;45.946;6.140;2022-07-12T11:33:48;95697.72;;;27.23;44.47
21838;BME280;11081;45.946;6.140;2022-07-12T11:36:18;95683.03;;;27.20;44.70
21838;BME280;11081;45.946;6.140;2022-07-12T11:38:47;95693.75;;;27.20;44.65
21838;BME280;11081;45.946;6.140;2022-07-12T11:41:15;95689.69;;;27.31;45.13
21838;BME280;11081;45.946;6.140;2022-07-12T11:43:43;95689.53;;;27.45;44.68
21838;BME280;11081;45.946;6.140;2022-07-12T11:46:12;95690.38;;;27.63;45.81
21838;BME280;11081;45.946;6.140;2022-07-12T11:48:41;95684.06;;;27.76;45.50
21838;BME280;11081;45.946;6.140;2022-07-12T11:51:11;95682.16;;;27.68;43.84
21838;BME280;11081;45.946;6.140;2022-07-12T11:53:40;95689.72;;;27.66;44.09
21838;BME280;11081;45.946;6.140;2022-07-12T11:56:10;95681.50;;;27.37;42.86
21838;BME280;11081;45.946;6.140;2022-07-12T11:58:38;95687.81;;;27.41;43.24
21838;BME280;11081;45.946;6.140;2022-07-12T12:01:10;95692.53;;;27.44;41.63
21838;BME280;11081;45.946;6.140;2022-07-12T12:03:43;95689.09;;;27.52;41.55
21838;BME280;11081;45.946;6.140;2022-07-12T12:06:12;95685.94;;;27.67;42.63
21838;BME280;11081;45.946;6.140;2022-07-12T12:08:41;95674.91;;;27.77;41.79
21838;BME280;11081;45.946;6.140;2022-07-12T12:11:12;95679.63;;;27.80;41.25
21838;BME280;11081;45.946;6.140;2022-07-12T12:13:40;95674.56;;;27.87;40.03
21838;BME280;11081;45.946;6.140;2022-07-12T12:16:10;95668.56;;;27.82;39.91
21838;BME280;11081;45.946;6.140;2022-07-12T12:18:39;95677.41;;;27.82;40.16
21838;BME280;11081;45.946;6.140;2022-07-12T12:21:09;95672.19;;;28.03;39.65
21838;BME280;11081;45.946;6.140;2022-07-12T12:23:38;95674.69;;;28.17;39.58
21838;BME280;11081;45.946;6.140;2022-07-12T12:26:13;95671.69;;;28.27;38.53
21838;BME280;11081;45.946;6.140;2022-07-12T12:28:46;95664.72;;;28.26;38.96
21838;BME280;11081;45.946;6.140;2022-07-12T12:31:16;95667.56;;;28.38;39.16
21838;BME280;11081;45.946;6.140;2022-07-12T12:33:46;95659.97;;;28.23;37.57
21838;BME280;11081;45.946;6.140;2022-07-12T12:36:19;95652.88;;;28.18;36.84
21838;BME280;11081;45.946;6.140;2022-07-12T12:38:49;95656.81;;;28.21;36.82
21838;BME280;11081;45.946;6.140;2022-07-12T12:41:20;95657.13;;;28.28;36.73
21838;BME280;11081;45.946;6.140;2022-07-12T12:43:57;95648.28;;;28.36;35.18
21838;BME280;11081;45.946;6.140;2022-07-12T12:46:46;95647.00;;;28.42;34.69
21838;BME280;11081;45.946;6.140;2022-07-12T12:49:14;95654.38;;;28.54;35.38
21838;BME280;11081;45.946;6.140;2022-07-12T12:51:52;95644.69;;;28.62;33.65
21838;BME280;11081;45.946;6.140;2022-07-12T12:54:31;95642.84;;;28.53;32.70
21838;BME280;11081;45.946;6.140;2022-07-12T12:57:01;95647.78;;;28.43;34.31
21838;BME280;11081;45.946;6.140;2022-07-12T12:59:29;95638.75;;;28.47;35.04
21838;BME280;11081;45.946;6.140;2022-07-12T13:01:57;95643.84;;;28.40;33.81
21838;BME280;11081;45.946;6.140;2022-07-12T13:04:27;95640.63;;;28.56;34.86
21838;BME280;11081;45.946;6.140;2022-07-12T13:06:56;95644.31;;;28.72;34.21
21838;BME280;11081;45.946;6.140;2022-07-12T13:09:24;95633.97;;;28.91;33.70
21838;BME280;11081;45.946;6.140;2022-07-12T13:11:52;95641.25;;;28.91;33.11
21838;BME280;11081;45.946;6.140;2022-07-12T13:14:22;95636.28;;;29.01;33.09
21838;BME280;11081;45.946;6.140;2022-07-12T13:16:50;95634.31;;;29.10;33.17